createdAt,value
2019-03-06T00:01:20.901Z,77.00
2019-03-06T00:05:25.892Z,77.40
2019-03-06T00:09:31.236Z,77.10
2019-03-06T00:13:36.332Z,76.80
2019-03-06T00:17:41.168Z,76.60
2019-03-06T00:21:46.667Z,77.70
2019-03-06T00:25:52.874Z,78.40
2019-03-06T00:29:57.790Z,78.20
2019-03-06T00:34:02.963Z,76.80
2019-03-06T00:38:07.849Z,76.80
2019-03-06T00:42:13.377Z,77.00
2019-03-06T00:46:18.703Z,77.30
2019-03-06T00:50:23.621Z,77.80
2019-03-06T00:54:28.742Z,78.50
2019-03-06T00:58:33.697Z,78.40
2019-03-06T01:02:38.628Z,77.60
2019-03-06T01:06:43.533Z,76.70
2019-03-06T01:10:48.455Z,76.40
2019-03-06T01:14:53.781Z,76.60
2019-03-06T01:18:58.552Z,76.30
2019-03-06T01:23:04.882Z,76.00
2019-03-06T01:27:09.795Z,76.40
2019-03-06T01:31:15.109Z,75.40
2019-03-06T01:35:39.292Z,75.60
2019-03-06T01:40:06.487Z,75.80
2019-03-06T01:44:22.032Z,76.30
2019-03-06T01:48:26.972Z,76.50
2019-03-06T01:52:32.785Z,76.00
2019-03-06T01:56:38.193Z,76.10
2019-03-06T02:00:44.110Z,76.60
2019-03-06T02:04:50.920Z,77.40
2019-03-06T02:08:55.855Z,78.00
2019-03-06T02:13:00.923Z,78.10
2019-03-06T02:17:05.860Z,77.90
2019-03-06T02:21:11.296Z,78.40
2019-03-06T02:25:16.224Z,77.80
2019-03-06T02:29:21.517Z,77.60
2019-03-06T02:33:26.636Z,77.50
2019-03-06T02:37:31.642Z,77.30
2019-03-06T02:41:36.576Z,77.80
2019-03-06T02:45:43.041Z,77.80
2019-03-06T02:49:48.017Z,77.30
2019-03-06T02:53:54.240Z,77.30
2019-03-06T02:58:04.357Z,76.60
2019-03-06T03:02:25.427Z,76.70
2019-03-06T03:06:40.847Z,77.20
2019-03-06T03:10:45.757Z,77.40
2019-03-06T03:14:50.634Z,77.40
2019-03-06T03:18:55.652Z,78.10
2019-03-06T03:23:00.669Z,78.60
2019-03-06T03:27:06.183Z,78.80
2019-03-06T03:31:11.299Z,78.90
2019-03-06T03:35:18.916Z,78.30
2019-03-06T03:39:23.696Z,78.60
2019-03-06T03:43:28.849Z,78.50
2019-03-06T03:47:33.705Z,77.80
2019-03-06T03:51:38.858Z,78.60
2019-03-06T03:55:43.706Z,78.00
2019-03-06T03:59:48.578Z,77.40
2019-03-06T04:03:53.869Z,77.30
2019-03-06T04:08:01.130Z,77.80
2019-03-06T04:12:06.138Z,77.60
2019-03-06T04:16:11.004Z,78.00
2019-03-06T04:20:15.961Z,78.20
2019-03-06T04:24:21.256Z,78.20
2019-03-06T04:28:28.040Z,78.00
2019-03-06T04:32:33.109Z,78.60
2019-03-06T04:36:38.263Z,78.90
2019-03-06T04:40:43.376Z,78.70
2019-03-06T04:44:48.307Z,78.20
2019-03-06T04:48:54.628Z,77.90
2019-03-06T04:52:59.767Z,77.60
2019-03-06T04:57:05.774Z,78.00
2019-03-06T05:01:10.903Z,77.90
2019-03-06T05:05:15.820Z,78.50
2019-03-06T05:09:22.774Z,78.50
2019-03-06T05:13:27.871Z,78.40
2019-03-06T05:17:54.532Z,78.40
2019-03-06T05:21:59.634Z,78.00
2019-03-06T05:26:05.635Z,77.60
2019-03-06T05:30:10.709Z,78.10
2019-03-06T05:34:15.924Z,78.40
2019-03-06T05:38:31.857Z,78.60
2019-03-06T05:42:36.811Z,78.90
2019-03-06T05:46:41.752Z,78.60
2019-03-06T05:50:50.209Z,78.30
2019-03-06T05:54:55.249Z,78.30
2019-03-06T05:59:02.180Z,78.80
2019-03-06T06:03:07.475Z,78.90
2019-03-06T06:07:13.353Z,78.80
2019-03-06T06:11:18.372Z,79.40
2019-03-06T06:15:23.228Z,79.50
2019-03-06T06:19:28.235Z,79.40
2019-03-06T06:23:43.048Z,78.90
2019-03-06T06:27:47.984Z,78.30
2019-03-06T06:31:53.088Z,77.80
2019-03-06T06:35:58.082Z,77.90
2019-03-06T06:40:03.029Z,78.40
2019-03-06T06:44:08.859Z,78.40
2019-03-06T06:48:19.006Z,77.70
2019-03-06T06:53:01.097Z,77.40
2019-03-06T06:57:17.664Z,77.00
2019-03-06T07:02:05.901Z,76.80
2019-03-06T07:06:19.346Z,76.90
2019-03-06T07:10:40.503Z,76.60
2019-03-06T07:14:59.124Z,76.30
2019-03-06T07:19:16.647Z,75.60
2019-03-06T07:23:31.465Z,75.30
2019-03-06T07:28:04.665Z,75.10
2019-03-06T07:32:32.516Z,74.60
2019-03-06T07:36:46.311Z,74.10
2019-03-06T07:41:06.655Z,73.70
2019-03-06T07:45:54.944Z,74.00
2019-03-06T07:50:18.919Z,74.00
2019-03-06T07:54:33.993Z,73.10
2019-03-06T07:58:52.349Z,72.20
2019-03-06T08:03:07.484Z,71.60
2019-03-06T08:07:14.120Z,71.10
2019-03-06T08:11:26.943Z,70.00
2019-03-06T08:15:47.551Z,69.20
2019-03-06T08:20:20.779Z,69.80
2019-03-06T08:24:44.688Z,70.00
2019-03-06T08:28:49.680Z,69.70
2019-03-06T08:32:54.615Z,69.70
2019-03-06T08:36:59.530Z,69.50
2019-03-06T08:41:06.769Z,68.60
2019-03-06T08:45:14.379Z,66.90
2019-03-06T08:49:35.617Z,65.80
2019-03-06T08:53:48.907Z,65.50
2019-03-06T08:58:15.672Z,64.60
2019-03-06T09:02:56.610Z,64.50
2019-03-06T09:07:17.009Z,64.50
2019-03-06T09:11:39.507Z,64.00
2019-03-06T09:16:06.848Z,63.10
2019-03-06T09:20:35.260Z,63.40
2019-03-06T09:24:40.604Z,62.40
2019-03-06T09:29:03.116Z,61.30
2019-03-06T09:33:33.325Z,59.90
2019-03-06T09:37:56.344Z,59.40
2019-03-06T09:42:19.520Z,59.20
2019-03-06T09:46:52.716Z,58.60
2019-03-06T09:51:05.592Z,59.50
2019-03-06T09:55:29.605Z,58.40
2019-03-06T09:59:44.108Z,57.50
2019-03-06T10:04:03.621Z,56.20
2019-03-06T10:08:33.691Z,54.80
2019-03-06T10:12:56.463Z,55.40
2019-03-06T10:17:16.849Z,54.80
2019-03-06T10:21:21.774Z,53.90
2019-03-06T10:25:30.336Z,53.80
2019-03-06T10:29:33.745Z,53.10
2019-03-06T10:33:38.758Z,54.00
2019-03-06T10:37:44.052Z,52.30
2019-03-06T10:41:49.077Z,54.00
2019-03-06T10:45:54.054Z,51.40
2019-03-06T10:49:59.059Z,51.20
2019-03-06T10:54:05.404Z,51.70
2019-03-06T10:58:10.495Z,51.60
2019-03-06T11:02:15.504Z,51.60
2019-03-06T11:06:20.655Z,52.50
2019-03-06T11:10:26.581Z,51.00
2019-03-06T11:14:31.881Z,49.40
2019-03-06T11:18:36.830Z,50.30
2019-03-06T11:22:41.874Z,48.70
2019-03-06T11:26:47.292Z,47.40
2019-03-06T11:30:53.861Z,47.40
2019-03-06T11:34:58.838Z,47.20
2019-03-06T11:39:05.704Z,46.50
2019-03-06T11:43:12.616Z,46.50
2019-03-06T11:47:17.540Z,45.80
2019-03-06T11:51:22.446Z,46.00
2019-03-06T11:55:29.110Z,46.00
2019-03-06T11:59:34.106Z,45.50
2019-03-06T12:03:39.100Z,44.90
2019-03-06T12:07:44.105Z,44.60
2019-03-06T12:11:49.099Z,44.50
2019-03-06T12:15:54.028Z,45.10
2019-03-06T12:20:07.683Z,44.20
2019-03-06T12:24:06.144Z,44.30
2019-03-06T12:28:13.115Z,44.90
2019-03-06T12:32:18.102Z,44.20
2019-03-06T12:36:23.113Z,43.60
2019-03-06T12:40:29.928Z,43.50
2019-03-06T12:44:34.877Z,44.20
2019-03-06T12:48:39.826Z,44.30
2019-03-06T12:52:44.737Z,44.70
2019-03-06T12:56:49.681Z,43.80
2019-03-06T13:00:54.710Z,43.40
2019-03-06T13:04:59.633Z,42.20
2019-03-06T13:09:16.266Z,42.60
2019-03-06T13:13:21.184Z,43.00
2019-03-06T13:17:26.155Z,42.80
2019-03-06T13:21:31.109Z,42.90
2019-03-06T13:25:37.109Z,43.50
2019-03-06T13:29:42.026Z,42.70
2019-03-06T13:33:56.708Z,42.60
2019-03-06T13:38:01.657Z,42.00
2019-03-06T13:42:06.672Z,41.60
2019-03-06T13:46:11.888Z,41.20
2019-03-06T13:50:16.804Z,40.80
2019-03-06T13:54:21.823Z,40.80
2019-03-06T13:58:27.051Z,41.30
2019-03-06T14:02:31.989Z,40.90
2019-03-06T14:06:36.987Z,41.70
2019-03-06T14:10:42.028Z,41.70
2019-03-06T14:14:47.025Z,41.40
2019-03-06T14:18:51.937Z,40.70
2019-03-06T14:22:56.863Z,39.70
2019-03-06T14:27:01.853Z,39.30
2019-03-06T14:31:06.771Z,39.60
2019-03-06T14:35:11.700Z,39.80
2019-03-06T14:39:28.583Z,39.60
2019-03-06T14:43:33.577Z,39.20
2019-03-06T14:47:38.491Z,39.80
2019-03-06T14:51:44.464Z,40.00
2019-03-06T14:55:49.406Z,39.80
2019-03-06T14:59:54.322Z,39.40
2019-03-06T15:03:59.265Z,39.80
2019-03-06T15:08:06.240Z,41.10
2019-03-06T15:12:11.582Z,40.80
2019-03-06T15:16:16.511Z,41.50
2019-03-06T15:20:21.503Z,42.70
2019-03-06T15:24:26.813Z,42.80
2019-03-06T15:28:31.798Z,43.00
2019-03-06T15:32:36.793Z,43.90
2019-03-06T15:36:41.781Z,44.10
2019-03-06T15:40:46.772Z,44.40
2019-03-06T15:44:51.593Z,45.00
2019-03-06T15:48:56.458Z,45.60
2019-03-06T15:53:01.263Z,46.00
2019-03-06T15:57:06.333Z,46.60
2019-03-06T16:01:11.434Z,46.50
2019-03-06T16:05:18.016Z,46.70
2019-03-06T16:09:24.262Z,47.40
2019-03-06T16:13:29.713Z,48.00
2019-03-06T16:17:34.601Z,48.80
2019-03-06T16:21:39.556Z,49.40
2019-03-06T16:25:44.381Z,49.50
2019-03-06T16:29:49.246Z,49.90
2019-03-06T16:33:54.099Z,50.50
2019-03-06T16:37:59.496Z,50.80
2019-03-06T16:42:04.855Z,51.10
2019-03-06T16:46:09.789Z,51.30
2019-03-06T16:50:16.350Z,51.20
2019-03-06T16:54:21.260Z,51.40
2019-03-06T16:58:26.194Z,51.70
2019-03-06T17:02:32.523Z,51.90
2019-03-06T17:06:37.459Z,51.90
2019-03-06T17:10:42.800Z,51.90
2019-03-06T17:14:47.668Z,52.10
2019-03-06T17:18:52.544Z,52.40
2019-03-06T17:22:58.280Z,52.60
2019-03-06T17:27:03.253Z,52.80
2019-03-06T17:31:08.476Z,52.80
2019-03-06T17:35:13.268Z,52.80
2019-03-06T17:39:19.029Z,52.80
2019-03-06T17:43:24.660Z,53.00
2019-03-06T17:47:29.676Z,53.30
2019-03-06T17:51:34.782Z,53.40
2019-03-06T17:55:39.617Z,53.40
2019-03-06T17:59:44.406Z,53.60
2019-03-06T18:04:01.653Z,53.80
2019-03-06T18:08:07.436Z,53.90
2019-03-06T18:12:12.551Z,54.30
2019-03-06T18:16:17.513Z,54.50
2019-03-06T18:20:22.373Z,54.50
2019-03-06T18:24:27.555Z,54.60
2019-03-06T18:28:32.805Z,54.60
2019-03-06T18:32:37.858Z,54.60
2019-03-06T18:36:42.801Z,55.00
2019-03-06T18:40:47.758Z,55.10
2019-03-06T18:44:52.815Z,55.40
2019-03-06T18:48:57.621Z,55.30
2019-03-06T18:53:02.585Z,56.00
2019-03-06T18:57:07.550Z,56.70
2019-03-06T19:01:12.445Z,56.60
2019-03-06T19:05:18.995Z,57.10
2019-03-06T19:09:23.943Z,57.20
2019-03-06T19:13:29.166Z,57.40
2019-03-06T19:17:34.131Z,57.60
2019-03-06T19:21:39.761Z,57.70
2019-03-06T19:25:46.103Z,57.70
2019-03-06T19:29:51.298Z,57.50
2019-03-06T19:33:56.585Z,57.30
2019-03-06T19:38:02.454Z,56.80
2019-03-06T19:42:07.784Z,56.60
2019-03-06T19:46:12.596Z,56.30
2019-03-06T19:50:19.182Z,56.10
2019-03-06T19:54:24.196Z,55.50
2019-03-06T19:58:29.063Z,55.40
2019-03-06T20:02:34.088Z,55.40
2019-03-06T20:06:39.027Z,53.60
2019-03-06T20:10:44.667Z,52.50
2019-03-06T20:14:49.616Z,51.90
2019-03-06T20:18:54.497Z,51.20
2019-03-06T20:22:59.640Z,50.70
2019-03-06T20:27:05.621Z,50.30
2019-03-06T20:31:10.497Z,50.00
2019-03-06T20:35:20.775Z,49.50
2019-03-06T20:39:26.009Z,48.40
2019-03-06T20:43:31.077Z,48.00
2019-03-06T20:47:36.512Z,47.20
2019-03-06T20:51:41.352Z,46.30
2019-03-06T20:55:46.170Z,46.40
2019-03-06T20:59:50.980Z,46.00
2019-03-06T21:03:55.918Z,45.70
2019-03-06T21:08:00.809Z,45.90
2019-03-06T21:12:05.784Z,45.30
2019-03-06T21:16:10.662Z,45.40
2019-03-06T21:20:17.617Z,45.10
2019-03-06T21:24:22.583Z,44.50
2019-03-06T21:28:27.456Z,43.50
2019-03-06T21:32:32.789Z,43.50
2019-03-06T21:36:37.580Z,43.90
2019-03-06T21:40:42.381Z,43.90
2019-03-06T21:44:47.413Z,44.20
2019-03-06T21:48:52.207Z,44.10
2019-03-06T21:52:57.414Z,43.60
2019-03-06T21:57:04.141Z,43.20
2019-03-06T22:01:09.270Z,42.60
2019-03-06T22:05:14.229Z,42.00
2019-03-06T22:09:19.962Z,42.00
2019-03-06T22:13:24.932Z,42.40
2019-03-06T22:17:29.759Z,41.80
2019-03-06T22:21:34.593Z,42.20
2019-03-06T22:25:39.437Z,41.90
2019-03-06T22:29:44.222Z,42.40
2019-03-06T22:33:49.138Z,43.00
2019-03-06T22:37:53.928Z,43.30
2019-03-06T22:41:58.691Z,43.10
2019-03-06T22:46:03.499Z,42.80
2019-03-06T22:50:10.114Z,42.50
2019-03-06T22:54:15.696Z,43.00
2019-03-06T22:58:20.532Z,43.00
2019-03-06T23:02:26.102Z,42.60
2019-03-06T23:06:31.006Z,42.70
2019-03-06T23:10:35.942Z,43.10
2019-03-06T23:14:40.900Z,43.10
2019-03-06T23:18:45.641Z,43.40
2019-03-06T23:22:51.044Z,42.60
2019-03-06T23:26:57.093Z,42.40
2019-03-06T23:31:02.054Z,42.30
2019-03-06T23:35:06.950Z,42.50
2019-03-06T23:39:13.181Z,42.10
2019-03-06T23:43:18.167Z,42.10
2019-03-06T23:47:23.020Z,42.00
2019-03-06T23:51:32.889Z,42.40
2019-03-06T23:55:37.780Z,42.20
2019-03-06T23:59:42.660Z,42.60
